sensor_id;sensor_type;location;lat;lon;timestamp;pressure;altitude;pressure_sealevel;temperature;humidity
62697;BME280;48761;42.680;23.312;2023-03-18T00:13:41;95161.53;;;2.95;66.97
62697;BME280;48761;42.680;23.312;2023-03-18T00:16:11;95168.75;;;2.35;69.55
62697;BME280;48761;42.680;23.312;2023-03-18T00:18:41;95223.97;;;2.32;72.23
62697;BME280;48761;42.680;23.312;2023-03-18T00:21:28;95153.78;;;1.53;74.10
62697;BME280;48761;42.680;23.312;2023-03-18T00:23:57;95162.72;;;1.45;74.89
62697;BME280;48761;42.680;23.312;2023-03-18T00:26:27;95228.91;;;1.84;75.62
62697;BME280;48761;42.680;23.312;2023-03-18T00:28:55;95163.34;;;1.23;76.64
62697;BME280;48761;42.680;23.312;2023-03-18T00:31:21;95179.66;;;1.33;77.10
62697;BME280;48761;42.680;23.312;2023-03-18T00:33:48;95218.63;;;1.76;76.60
62697;BME280;48761;42.680;23.312;2023-03-18T00:36:14;95163.09;;;1.63;76.18
62697;BME280;48761;42.680;23.312;2023-03-18T00:38:42;95175.63;;;1.82;75.27
62697;BME280;48761;42.680;23.312;2023-03-18T00:41:12;95177.56;;;2.06;74.50
62697;BME280;48761;42.680;23.312;2023-03-18T00:43:43;95146.63;;;1.88;74.32
62697;BME280;48761;42.680;23.312;2023-03-18T00:46:09;95134.75;;;1.76;74.97
62697;BME280;48761;42.680;23.312;2023-03-18T00:48:36;95130.03;;;1.59;75.27
62697;BME280;48761;42.680;23.312;2023-03-18T00:51:02;95123.00;;;1.88;74.49
62697;BME280;48761;42.680;23.312;2023-03-18T00:53:28;95115.66;;;2.00;74.02
62697;BME280;48761;42.680;23.312;2023-03-18T00:55:54;95153.06;;;2.05;74.48
62697;BME280;48761;42.680;23.312;2023-03-18T00:58:20;95186.69;;;2.50;73.61
62697;BME280;48761;42.680;23.312;2023-03-18T01:00:46;95136.53;;;2.32;73.42
62697;BME280;48761;42.680;23.312;2023-03-18T01:03:12;95108.22;;;2.15;72.75
62697;BME280;48761;42.680;23.312;2023-03-18T01:05:39;95111.34;;;2.26;72.46
62697;BME280;48761;42.680;23.312;2023-03-18T01:08:05;95110.31;;;2.30;72.42
62697;BME280;48761;42.680;23.312;2023-03-18T01:10:31;95178.16;;;2.70;72.39
62697;BME280;48761;42.680;23.312;2023-03-18T01:12:58;95145.94;;;2.65;72.33
62697;BME280;48761;42.680;23.312;2023-03-18T01:15:24;95109.19;;;2.12;72.84
62697;BME280;48761;42.680;23.312;2023-03-18T01:17:51;95137.63;;;2.52;71.83
62697;BME280;48761;42.680;23.312;2023-03-18T01:20:18;95104.66;;;2.43;71.48
62697;BME280;48761;42.680;23.312;2023-03-18T01:22:44;95109.81;;;2.46;70.84
62697;BME280;48761;42.680;23.312;2023-03-18T01:25:12;95144.81;;;2.72;70.76
62697;BME280;48761;42.680;23.312;2023-03-18T01:27:38;95136.13;;;2.70;70.79
62697;BME280;48761;42.680;23.312;2023-03-18T01:30:06;95169.06;;;2.80;70.97
62697;BME280;48761;42.680;23.312;2023-03-18T01:32:32;95124.22;;;2.60;70.76
62697;BME280;48761;42.680;23.312;2023-03-18T01:34:58;95152.63;;;2.74;70.92
62697;BME280;48761;42.680;23.312;2023-03-18T01:37:25;95134.50;;;2.66;70.16
62697;BME280;48761;42.680;23.312;2023-03-18T01:39:51;95157.56;;;2.83;71.01
62697;BME280;48761;42.680;23.312;2023-03-18T01:42:18;95128.44;;;2.65;70.28
62697;BME280;48761;42.680;23.312;2023-03-18T01:44:44;95106.03;;;2.55;70.33
62697;BME280;48761;42.680;23.312;2023-03-18T01:47:12;95102.94;;;2.42;70.48
62697;BME280;48761;42.680;23.312;2023-03-18T01:49:47;95134.28;;;2.46;71.76
62697;BME280;48761;42.680;23.312;2023-03-18T01:52:19;95161.63;;;2.66;71.89
62697;BME280;48761;42.680;23.312;2023-03-18T02:13:02;95083.34;;;2.27;70.57
62697;BME280;48761;42.680;23.312;2023-03-18T02:15:30;95144.91;;;2.69;70.57
62697;BME280;48761;42.680;23.312;2023-03-18T02:18:26;95126.78;;;2.61;70.65
62697;BME280;48761;42.680;23.312;2023-03-18T02:27:26;95081.00;;;2.44;70.00
62697;BME280;48761;42.680;23.312;2023-03-18T02:29:20;95149.28;;;2.68;70.05
62697;BME280;48761;42.680;23.312;2023-03-18T02:31:48;95074.59;;;2.26;70.49
62697;BME280;48761;42.680;23.312;2023-03-18T02:34:15;95071.19;;;2.24;70.34
62697;BME280;48761;42.680;23.312;2023-03-18T02:36:45;95083.25;;;2.30;69.77
62697;BME280;48761;42.680;23.312;2023-03-18T02:39:13;95091.84;;;2.33;70.34
62697;BME280;48761;42.680;23.312;2023-03-18T02:41:39;95087.97;;;2.18;70.16
62697;BME280;48761;42.680;23.312;2023-03-18T02:44:06;95127.31;;;2.45;70.71
62697;BME280;48761;42.680;23.312;2023-03-18T02:49:12;95141.81;;;2.57;70.63
62697;BME280;48761;42.680;23.312;2023-03-18T02:51:39;95075.81;;;2.16;70.91
62697;BME280;48761;42.680;23.312;2023-03-18T02:54:11;95074.59;;;2.26;70.54
62697;BME280;48761;42.680;23.312;2023-03-18T02:56:41;95137.78;;;2.47;70.64
62697;BME280;48761;42.680;23.312;2023-03-18T02:59:09;95149.63;;;2.05;72.29
62697;BME280;48761;42.680;23.312;2023-03-18T03:01:36;95105.88;;;1.17;75.39
62697;BME280;48761;42.680;23.312;2023-03-18T03:04:03;95073.50;;;0.58;76.88
62697;BME280;48761;42.680;23.312;2023-03-18T03:06:29;95074.63;;;0.47;77.35
62697;BME280;48761;42.680;23.312;2023-03-18T03:08:56;95118.34;;;0.77;78.01
62697;BME280;48761;42.680;23.312;2023-03-18T03:11:23;95120.91;;;0.45;78.92
62697;BME280;48761;42.680;23.312;2023-03-18T03:13:49;95149.94;;;0.71;79.01
62697;BME280;48761;42.680;23.312;2023-03-18T03:16:16;95117.69;;;0.35;79.44
62697;BME280;48761;42.680;23.312;2023-03-18T03:18:46;95108.06;;;0.36;79.36
62697;BME280;48761;42.680;23.312;2023-03-18T03:21:13;95080.59;;;0.19;79.44
62697;BME280;48761;42.680;23.312;2023-03-18T03:23:40;95128.59;;;0.51;79.30
62697;BME280;48761;42.680;23.312;2023-03-18T03:26:06;95122.94;;;0.33;80.18
62697;BME280;48761;42.680;23.312;2023-03-18T03:28:33;95151.94;;;0.59;79.86
62697;BME280;48761;42.680;23.312;2023-03-18T03:31:00;95084.00;;;0.22;79.25
62697;BME280;48761;42.680;23.312;2023-03-18T03:33:29;95151.19;;;0.55;79.34
62697;BME280;48761;42.680;23.312;2023-03-18T03:36:01;95151.13;;;0.57;79.72
62697;BME280;48761;42.680;23.312;2023-03-18T03:38:27;95164.25;;;0.89;79.06
62697;BME280;48761;42.680;23.312;2023-03-18T03:40:53;95131.88;;;0.60;78.94
62697;BME280;48761;42.680;23.312;2023-03-18T03:43:21;95140.63;;;0.92;78.39
62697;BME280;48761;42.680;23.312;2023-03-18T03:45:49;95142.56;;;0.84;78.33
62697;BME280;48761;42.680;23.312;2023-03-18T03:48:16;95151.63;;;0.72;78.80
62697;BME280;48761;42.680;23.312;2023-03-18T03:50:42;95144.88;;;0.63;79.01
62697;BME280;48761;42.680;23.312;2023-03-18T03:53:10;95151.00;;;0.62;79.27
62697;BME280;48761;42.680;23.312;2023-03-18T03:58:27;95169.81;;;0.76;79.71
62697;BME280;48761;42.680;23.312;2023-03-18T04:00:53;95140.41;;;0.68;78.95
62697;BME280;48761;42.680;23.312;2023-03-18T04:03:19;95106.72;;;0.54;78.66
62697;BME280;48761;42.680;23.312;2023-03-18T04:05:48;95145.03;;;0.90;78.26
62697;BME280;48761;42.680;23.312;2023-03-18T04:08:14;95162.31;;;0.97;78.11
62697;BME280;48761;42.680;23.312;2023-03-18T04:10:40;95106.94;;;0.80;77.70
62697;BME280;48761;42.680;23.312;2023-03-18T04:13:09;95105.44;;;0.71;77.66
62697;BME280;48761;42.680;23.312;2023-03-18T04:15:36;95162.16;;;1.04;77.56
62697;BME280;48761;42.680;23.312;2023-03-18T04:18:02;95101.28;;;0.94;76.73
62697;BME280;48761;42.680;23.312;2023-03-18T04:20:28;95156.69;;;1.42;76.18
62697;BME280;48761;42.680;23.312;2023-03-18T04:22:57;95109.22;;;1.22;75.44
62697;BME280;48761;42.680;23.312;2023-03-18T04:25:23;95121.88;;;1.38;74.89
62697;BME280;48761;42.680;23.312;2023-03-18T04:27:49;95126.78;;;0.87;75.42
62697;BME280;48761;42.680;23.312;2023-03-18T04:30:16;95148.00;;;0.42;77.38
62697;BME280;48761;42.680;23.312;2023-03-18T04:32:42;95142.97;;;0.35;78.02
62697;BME280;48761;42.680;23.312;2023-03-18T04:35:08;95197.72;;;0.42;77.98
62697;BME280;48761;42.680;23.312;2023-03-18T04:37:34;95198.78;;;0.33;78.38
62697;BME280;48761;42.680;23.312;2023-03-18T04:40:01;95179.34;;;0.44;77.41
62697;BME280;48761;42.680;23.312;2023-03-18T04:42:27;95168.25;;;0.69;76.31
62697;BME280;48761;42.680;23.312;2023-03-18T04:44:53;95184.88;;;0.68;76.10
62697;BME280;48761;42.680;23.312;2023-03-18T04:47:19;95212.13;;;0.94;76.01
62697;BME280;48761;42.680;23.312;2023-03-18T04:49:45;95222.53;;;1.31;75.25
62697;BME280;48761;42.680;23.312;2023-03-18T04:52:11;95222.91;;;1.49;74.50
62697;BME280;48761;42.680;23.312;2023-03-18T04:54:37;95166.06;;;1.51;74.15
62697;BME280;48761;42.680;23.312;2023-03-18T04:57:03;95193.16;;;1.80;73.25
62697;BME280;48761;42.680;23.312;2023-03-18T04:59:29;95212.84;;;2.24;72.68
62697;BME280;48761;42.680;23.312;2023-03-18T05:01:55;95192.19;;;2.42;72.64
62697;BME280;48761;42.680;23.312;2023-03-18T05:04:21;95162.19;;;2.22;70.54
62697;BME280;48761;42.680;23.312;2023-03-18T05:06:48;95161.78;;;1.48;71.08
62697;BME280;48761;42.680;23.312;2023-03-18T05:09:14;95215.78;;;1.84;71.29
62697;BME280;48761;42.680;23.312;2023-03-18T05:11:40;95135.84;;;1.69;71.63
62697;BME280;48761;42.680;23.312;2023-03-18T05:14:06;95189.34;;;2.48;71.00
62697;BME280;48761;42.680;23.312;2023-03-18T05:16:32;95211.72;;;3.13;69.27
62697;BME280;48761;42.680;23.312;2023-03-18T05:18:58;95166.94;;;3.16;67.76
62697;BME280;48761;42.680;23.312;2023-03-18T05:21:27;95157.94;;;3.47;65.97
62697;BME280;48761;42.680;23.312;2023-03-18T05:23:54;95133.66;;;3.87;65.73
62697;BME280;48761;42.680;23.312;2023-03-18T05:26:20;95143.97;;;3.94;64.47
62697;BME280;48761;42.680;23.312;2023-03-18T05:36:31;95132.25;;;5.09;61.24
62697;BME280;48761;42.680;23.312;2023-03-18T05:39:10;95133.31;;;5.25;60.67
62697;BME280;48761;42.680;23.312;2023-03-18T05:41:44;95200.97;;;5.86;60.18
62697;BME280;48761;42.680;23.312;2023-03-18T05:44:13;95139.88;;;5.36;60.16
62697;BME280;48761;42.680;23.312;2023-03-18T05:54:29;95139.91;;;5.55;58.75
62697;BME280;48761;42.680;23.312;2023-03-18T05:56:55;95151.44;;;5.53;58.80
62697;BME280;48761;42.680;23.312;2023-03-18T05:59:22;95204.19;;;5.11;59.70
62697;BME280;48761;42.680;23.312;2023-03-18T06:01:50;95160.47;;;4.20;61.34
62697;BME280;48761;42.680;23.312;2023-03-18T06:04:17;95161.09;;;4.04;61.75
62697;BME280;48761;42.680;23.312;2023-03-18T06:06:43;95200.88;;;4.19;62.57
62697;BME280;48761;42.680;23.312;2023-03-18T06:09:11;95209.00;;;4.80;61.74
62697;BME280;48761;42.680;23.312;2023-03-18T06:11:38;95165.47;;;5.13;60.08
62697;BME280;48761;42.680;23.312;2023-03-18T06:14:06;95165.28;;;4.53;60.50
62697;BME280;48761;42.680;23.312;2023-03-18T06:16:33;95228.78;;;5.32;59.51
62697;BME280;48761;42.680;23.312;2023-03-18T06:18:59;95240.28;;;5.71;59.18
62697;BME280;48761;42.680;23.312;2023-03-18T06:21:26;95244.13;;;5.64;58.83
62697;BME280;48761;42.680;23.312;2023-03-18T06:23:53;95164.78;;;4.45;60.51
62697;BME280;48761;42.680;23.312;2023-03-18T06:26:19;95238.28;;;4.72;60.44
62697;BME280;48761;42.680;23.312;2023-03-18T06:28:45;95166.78;;;4.81;59.98
62697;BME280;48761;42.680;23.312;2023-03-18T06:31:12;95172.25;;;5.59;58.41
62697;BME280;48761;42.680;23.312;2023-03-18T06:33:47;95226.38;;;6.47;56.90
62697;BME280;48761;42.680;23.312;2023-03-18T06:36:13;95227.38;;;6.25;56.81
62697;BME280;48761;42.680;23.312;2023-03-18T06:38:39;95196.19;;;6.70;55.71
62697;BME280;48761;42.680;23.312;2023-03-18T06:41:05;95201.50;;;6.51;55.87
62697;BME280;48761;42.680;23.312;2023-03-18T06:43:34;95164.47;;;7.06;55.52
62697;BME280;48761;42.680;23.312;2023-03-18T06:46:00;95159.81;;;7.11;53.70
62697;BME280;48761;42.680;23.312;2023-03-18T06:48:26;95147.47;;;6.76;54.33
62697;BME280;48761;42.680;23.312;2023-03-18T06:50:52;95210.16;;;6.72;55.48
62697;BME280;48761;42.680;23.312;2023-03-18T06:53:19;95162.84;;;7.21;54.55
62697;BME280;48761;42.680;23.312;2023-03-18T06:55:45;95137.84;;;7.45;53.34
62697;BME280;48761;42.680;23.312;2023-03-18T06:58:11;95146.41;;;6.43;55.76
62697;BME280;48761;42.680;23.312;2023-03-18T07:00:37;95208.94;;;6.43;56.04
62697;BME280;48761;42.680;23.312;2023-03-18T07:03:04;95160.31;;;5.90;57.17
62697;BME280;48761;42.680;23.312;2023-03-18T07:05:30;95141.69;;;5.55;58.09
62697;BME280;48761;42.680;23.312;2023-03-18T07:07:56;95178.56;;;5.76;58.34
62697;BME280;48761;42.680;23.312;2023-03-18T07:10:25;95151.31;;;6.33;56.58
62697;BME280;48761;42.680;23.312;2023-03-18T07:12:52;95143.03;;;6.02;57.24
62697;BME280;48761;42.680;23.312;2023-03-18T07:15:21;95171.38;;;5.99;57.63
62697;BME280;48761;42.680;23.312;2023-03-18T07:17:48;95179.56;;;6.31;56.93
62697;BME280;48761;42.680;23.312;2023-03-18T07:20:15;95174.44;;;7.01;55.69
62697;BME280;48761;42.680;23.312;2023-03-18T07:22:42;95170.88;;;7.20;54.36
62697;BME280;48761;42.680;23.312;2023-03-18T07:25:09;95144.03;;;6.56;56.08
62697;BME280;48761;42.680;23.312;2023-03-18T07:27:36;95196.81;;;6.38;56.37
62697;BME280;48761;42.680;23.312;2023-03-18T07:30:03;95138.47;;;6.06;56.99
62697;BME280;48761;42.680;23.312;2023-03-18T07:32:29;95135.00;;;6.43;55.88
62697;BME280;48761;42.680;23.312;2023-03-18T07:34:59;95145.47;;;6.07;57.19
62697;BME280;48761;42.680;23.312;2023-03-18T07:37:26;95217.44;;;6.30;57.70
62697;BME280;48761;42.680;23.312;2023-03-18T07:39:52;95216.47;;;6.70;56.11
62697;BME280;48761;42.680;23.312;2023-03-18T07:42:22;95144.97;;;6.55;56.04
62697;BME280;48761;42.680;23.312;2023-03-18T07:44:48;95184.41;;;6.41;57.28
62697;BME280;48761;42.680;23.312;2023-03-18T07:47:14;95190.72;;;6.19;58.14
62697;BME280;48761;42.680;23.312;2023-03-18T07:49:40;95190.56;;;6.22;58.30
62697;BME280;48761;42.680;23.312;2023-03-18T07:52:07;95162.59;;;6.37;57.30
62697;BME280;48761;42.680;23.312;2023-03-18T07:54:33;95198.41;;;7.67;54.91
62697;BME280;48761;42.680;23.312;2023-03-18T07:57:00;95207.28;;;8.49;52.94
62697;BME280;48761;42.680;23.312;2023-03-18T07:59:26;95205.41;;;8.18;52.13
62697;BME280;48761;42.680;23.312;2023-03-18T08:01:53;95150.03;;;6.95;54.53
62697;BME280;48761;42.680;23.312;2023-03-18T08:04:19;95148.47;;;7.09;53.50
62697;BME280;48761;42.680;23.312;2023-03-18T08:06:48;95170.75;;;7.39;54.34
62697;BME280;48761;42.680;23.312;2023-03-18T08:09:18;95182.13;;;7.91;52.57
62697;BME280;48761;42.680;23.312;2023-03-18T08:11:44;95182.25;;;8.38;52.22
62697;BME280;48761;42.680;23.312;2023-03-18T08:14:11;95179.16;;;7.63;53.58
62697;BME280;48761;42.680;23.312;2023-03-18T08:16:37;95177.13;;;7.53;54.17
62697;BME280;48761;42.680;23.312;2023-03-18T08:19:03;95185.81;;;7.89;54.15
62697;BME280;48761;42.680;23.312;2023-03-18T08:21:29;95172.88;;;7.66;53.49
62697;BME280;48761;42.680;23.312;2023-03-18T08:23:55;95204.97;;;7.76;54.25
62697;BME280;48761;42.680;23.312;2023-03-18T08:26:21;95203.00;;;8.14;53.29
62697;BME280;48761;42.680;23.312;2023-03-18T08:28:47;95210.50;;;8.22;53.04
62697;BME280;48761;42.680;23.312;2023-03-18T08:31:14;95213.25;;;8.20;52.16
62697;BME280;48761;42.680;23.312;2023-03-18T08:33:40;95171.06;;;8.01;52.43
62697;BME280;48761;42.680;23.312;2023-03-18T08:36:07;95204.94;;;9.07;50.79
62697;BME280;48761;42.680;23.312;2023-03-18T08:38:33;95199.72;;;9.95;49.12
62697;BME280;48761;42.680;23.312;2023-03-18T08:40:59;95179.78;;;9.29;49.56
62697;BME280;48761;42.680;23.312;2023-03-18T08:43:26;95192.91;;;8.85;50.12
62697;BME280;48761;42.680;23.312;2023-03-18T08:45:52;95162.50;;;8.60;50.95
62697;BME280;48761;42.680;23.312;2023-03-18T08:48:19;95199.13;;;9.15;50.08
62697;BME280;48761;42.680;23.312;2023-03-18T08:50:45;95193.63;;;9.04;49.89
62697;BME280;48761;42.680;23.312;2023-03-18T08:53:11;95217.63;;;9.62;49.26
62697;BME280;48761;42.680;23.312;2023-03-18T08:55:38;95210.06;;;9.25;48.98
62697;BME280;48761;42.680;23.312;2023-03-18T08:58:04;95205.19;;;9.48;49.17
62697;BME280;48761;42.680;23.312;2023-03-18T09:00:32;95197.13;;;9.04;48.61
62697;BME280;48761;42.680;23.312;2023-03-18T09:02:58;95194.69;;;9.16;49.00
62697;BME280;48761;42.680;23.312;2023-03-18T09:05:23;95205.41;;;10.04;48.45
62697;BME280;48761;42.680;23.312;2023-03-18T09:07:50;95194.00;;;9.43;46.48
62697;BME280;48761;42.680;23.312;2023-03-18T09:10:16;95203.09;;;9.53;46.68
62697;BME280;48761;42.680;23.312;2023-03-18T09:12:43;95173.91;;;9.53;46.03
62697;BME280;48761;42.680;23.312;2023-03-18T09:15:11;95200.84;;;10.20;45.67
62697;BME280;48761;42.680;23.312;2023-03-18T09:17:38;95197.06;;;10.10;46.04
62697;BME280;48761;42.680;23.312;2023-03-18T09:20:10;95194.59;;;10.07;45.90
62697;BME280;48761;42.680;23.312;2023-03-18T09:22:38;95188.13;;;9.96;44.99
62697;BME280;48761;42.680;23.312;2023-03-18T09:25:05;95208.63;;;10.09;42.64
62697;BME280;48761;42.680;23.312;2023-03-18T09:27:31;95209.75;;;10.19;43.06
62697;BME280;48761;42.680;23.312;2023-03-18T09:29:57;95183.81;;;9.81;42.83
62697;BME280;48761;42.680;23.312;2023-03-18T09:32:26;95205.03;;;10.10;41.36
62697;BME280;48761;42.680;23.312;2023-03-18T09:34:52;95175.56;;;9.85;41.95
62697;BME280;48761;42.680;23.312;2023-03-18T09:37:19;95149.75;;;9.58;42.27
62697;BME280;48761;42.680;23.312;2023-03-18T09:39:45;95149.84;;;9.57;41.86
62697;BME280;48761;42.680;23.312;2023-03-18T09:45:07;95188.53;;;9.15;43.18
62697;BME280;48761;42.680;23.312;2023-03-18T09:56:45;95191.13;;;9.32;44.60
62697;BME280;48761;42.680;23.312;2023-03-18T09:59:39;95197.63;;;10.15;43.62
62697;BME280;48761;42.680;23.312;2023-03-18T10:02:18;95138.38;;;9.85;42.62
62697;BME280;48761;42.680;23.312;2023-03-18T10:04:52;95208.25;;;8.95;44.09
62697;BME280;48761;42.680;23.312;2023-03-18T10:07:23;95175.03;;;9.35;43.20
62697;BME280;48761;42.680;23.312;2023-03-18T10:09:58;95198.69;;;9.23;42.80
62697;BME280;48761;42.680;23.312;2023-03-18T10:17:30;95171.44;;;10.09;40.88
62697;BME280;48761;42.680;23.312;2023-03-18T10:20:01;95168.63;;;9.97;41.67
62697;BME280;48761;42.680;23.312;2023-03-18T10:22:57;95188.06;;;9.08;43.52
62697;BME280;48761;42.680;23.312;2023-03-18T10:25:31;95195.25;;;9.06;43.53
62697;BME280;48761;42.680;23.312;2023-03-18T10:28:06;95197.31;;;9.01;42.69
62697;BME280;48761;42.680;23.312;2023-03-18T10:33:44;95184.28;;;8.49;42.87
62697;BME280;48761;42.680;23.312;2023-03-18T10:38:49;95145.41;;;8.97;42.35
62697;BME280;48761;42.680;23.312;2023-03-18T10:41:22;95147.78;;;8.71;40.57
62697;BME280;48761;42.680;23.312;2023-03-18T10:43:52;95184.00;;;8.87;40.20
62697;BME280;48761;42.680;23.312;2023-03-18T10:46:20;95190.34;;;8.19;41.42
62697;BME280;48761;42.680;23.312;2023-03-18T10:51:28;95186.53;;;8.41;39.50
62697;BME280;48761;42.680;23.312;2023-03-18T10:56:27;95163.13;;;8.01;41.12
62697;BME280;48761;42.680;23.312;2023-03-18T10:58:54;95155.31;;;8.62;42.06
62697;BME280;48761;42.680;23.312;2023-03-18T11:01:56;95156.38;;;9.51;39.55
62697;BME280;48761;42.680;23.312;2023-03-18T11:04:23;95134.16;;;9.08;39.58
62697;BME280;48761;42.680;23.312;2023-03-18T11:06:58;95180.94;;;8.78;39.60
62697;BME280;48761;42.680;23.312;2023-03-18T11:09:34;95126.09;;;8.48;42.38
62697;BME280;48761;42.680;23.312;2023-03-18T11:12:27;95166.69;;;8.32;43.28
62697;BME280;48761;42.680;23.312;2023-03-18T11:14:54;95184.53;;;8.12;43.84
62697;BME280;48761;42.680;23.312;2023-03-18T11:22:29;95168.66;;;7.96;44.07
62697;BME280;48761;42.680;23.312;2023-03-18T11:25:16;95166.09;;;7.94;43.55
62697;BME280;48761;42.680;23.312;2023-03-18T11:27:50;95147.81;;;7.73;42.82
62697;BME280;48761;42.680;23.312;2023-03-18T11:30:28;95136.00;;;7.63;42.12
62697;BME280;48761;42.680;23.312;2023-03-18T11:35:22;95163.88;;;8.35;40.95
62697;BME280;48761;42.680;23.312;2023-03-18T11:37:52;95099.47;;;7.70;40.53
62697;BME280;48761;42.680;23.312;2023-03-18T11:40:23;95127.41;;;8.08;41.00
62697;BME280;48761;42.680;23.312;2023-03-18T11:48:30;95119.31;;;8.11;40.38
62697;BME280;48761;42.680;23.312;2023-03-18T11:54:33;95161.22;;;8.68;41.55
62697;BME280;48761;42.680;23.312;2023-03-18T11:57:36;95161.38;;;8.00;39.92
62697;BME280;48761;42.680;23.312;2023-03-18T12:00:13;95167.03;;;8.26;39.11
62697;BME280;48761;42.680;23.312;2023-03-18T12:06:21;95165.91;;;8.30;40.16
62697;BME280;48761;42.680;23.312;2023-03-18T12:09:14;95173.09;;;8.28;40.09
62697;BME280;48761;42.680;23.312;2023-03-18T12:14:40;95159.94;;;8.10;41.48
62697;BME280;48761;42.680;23.312;2023-03-18T12:26:05;95166.91;;;7.79;41.43
62697;BME280;48761;42.680;23.312;2023-03-18T12:31:33;95158.06;;;8.12;40.92
62697;BME280;48761;42.680;23.312;2023-03-18T12:34:03;95155.59;;;8.41;40.09
62697;BME280;48761;42.680;23.312;2023-03-18T12:43:44;95149.44;;;8.41;39.58
62697;BME280;48761;42.680;23.312;2023-03-18T12:46:46;95145.59;;;8.47;39.27
62697;BME280;48761;42.680;23.312;2023-03-18T12:52:01;95151.81;;;8.29;40.75
62697;BME280;48761;42.680;23.312;2023-03-18T12:54:35;95146.38;;;8.16;40.45
62697;BME280;48761;42.680;23.312;2023-03-18T12:57:57;95154.78;;;8.39;40.65
62697;BME280;48761;42.680;23.312;2023-03-18T13:00:05;95144.41;;;8.36;40.04
62697;BME280;48761;42.680;23.312;2023-03-18T13:02:37;95147.28;;;7.99;39.84
62697;BME280;48761;42.680;23.312;2023-03-18T13:05:15;95143.28;;;7.92;40.51
62697;BME280;48761;42.680;23.312;2023-03-18T13:07:53;95144.75;;;8.14;39.86
62697;BME280;48761;42.680;23.312;2023-03-18T13:10:29;95149.69;;;8.36;39.60
62697;BME280;48761;42.680;23.312;2023-03-18T13:13:02;95143.41;;;8.70;38.97
62697;BME280;48761;42.680;23.312;2023-03-18T13:15:40;95143.34;;;9.02;38.56
62697;BME280;48761;42.680;23.312;2023-03-18T13:18:32;95155.47;;;8.76;38.13
62697;BME280;48761;42.680;23.312;2023-03-18T13:21:04;95141.63;;;8.54;38.32
62697;BME280;48761;42.680;23.312;2023-03-18T13:26:40;95155.84;;;8.21;38.94
62697;BME280;48761;42.680;23.312;2023-03-18T13:29:14;95151.06;;;8.27;38.98
62697;BME280;48761;42.680;23.312;2023-03-18T13:34:24;95151.22;;;8.24;38.24
62697;BME280;48761;42.680;23.312;2023-03-18T13:37:22;95141.09;;;8.16;38.55
62697;BME280;48761;42.680;23.312;2023-03-18T13:42:40;95116.66;;;8.11;38.97
62697;BME280;48761;42.680;23.312;2023-03-18T13:45:37;95118.44;;;8.11;38.73
62697;BME280;48761;42.680;23.312;2023-03-18T13:50:35;95116.03;;;8.38;38.32
62697;BME280;48761;42.680;23.312;2023-03-18T13:53:03;95138.03;;;8.55;37.64
62697;BME280;48761;42.680;23.312;2023-03-18T13:55:34;95129.78;;;8.61;37.53
62697;BME280;48761;42.680;23.312;2023-03-18T14:00:41;95120.56;;;8.36;37.52
62697;BME280;48761;42.680;23.312;2023-03-18T14:16:29;95118.25;;;8.30;37.29
62697;BME280;48761;42.680;23.312;2023-03-18T14:19:18;95127.22;;;8.44;37.72
62697;BME280;48761;42.680;23.312;2023-03-18T14:21:46;95122.19;;;8.23;37.48
62697;BME280;48761;42.680;23.312;2023-03-18T14:24:21;95129.09;;;8.41;36.82
62697;BME280;48761;42.680;23.312;2023-03-18T14:29:25;95143.03;;;8.61;36.67
62697;BME280;48761;42.680;23.312;2023-03-18T14:31:59;95139.63;;;8.59;36.87
62697;BME280;48761;42.680;23.312;2023-03-18T14:34:31;95136.09;;;8.43;37.20
62697;BME280;48761;42.680;23.312;2023-03-18T14:41:52;95123.81;;;8.41;36.91
62697;BME280;48761;42.680;23.312;2023-03-18T14:44:25;95131.47;;;8.46;36.75
62697;BME280;48761;42.680;23.312;2023-03-18T14:46:57;95126.41;;;8.58;36.06
62697;BME280;48761;42.680;23.312;2023-03-18T14:49:47;95126.75;;;8.68;36.33
62697;BME280;48761;42.680;23.312;2023-03-18T14:52:34;95133.94;;;8.66;36.07
62697;BME280;48761;42.680;23.312;2023-03-18T14:55:06;95134.13;;;8.62;36.03
62697;BME280;48761;42.680;23.312;2023-03-18T14:57:33;95134.44;;;8.56;36.28
62697;BME280;48761;42.680;23.312;2023-03-18T14:59:59;95098.44;;;8.05;36.03
62697;BME280;48761;42.680;23.312;2023-03-18T15:02:31;95131.50;;;8.30;36.00
62697;BME280;48761;42.680;23.312;2023-03-18T15:04:59;95105.75;;;8.32;36.19
62697;BME280;48761;42.680;23.312;2023-03-18T15:07:34;95117.22;;;8.49;36.34
62697;BME280;48761;42.680;23.312;2023-03-18T15:10:13;95132.91;;;8.52;36.93
62697;BME280;48761;42.680;23.312;2023-03-18T15:12:40;95123.38;;;8.33;37.59
62697;BME280;48761;42.680;23.312;2023-03-18T15:15:09;95110.75;;;8.06;38.21
62697;BME280;48761;42.680;23.312;2023-03-18T15:17:38;95141.25;;;8.13;37.74
62697;BME280;48761;42.680;23.312;2023-03-18T15:20:04;95141.16;;;8.15;37.91
62697;BME280;48761;42.680;23.312;2023-03-18T15:22:31;95139.78;;;8.24;38.09
62697;BME280;48761;42.680;23.312;2023-03-18T15:25:03;95149.09;;;8.15;37.99
62697;BME280;48761;42.680;23.312;2023-03-18T15:27:31;95154.81;;;8.23;39.05
62697;BME280;48761;42.680;23.312;2023-03-18T15:29:59;95156.69;;;8.05;38.19
62697;BME280;48761;42.680;23.312;2023-03-18T15:35:24;95139.78;;;7.75;38.09
62697;BME280;48761;42.680;23.312;2023-03-18T15:40:44;95156.16;;;7.66;38.77
62697;BME280;48761;42.680;23.312;2023-03-18T15:45:57;95151.53;;;7.69;39.19
62697;BME280;48761;42.680;23.312;2023-03-18T15:48:37;95181.00;;;7.79;39.06
62697;BME280;48761;42.680;23.312;2023-03-18T15:51:06;95184.66;;;7.60;39.74
62697;BME280;48761;42.680;23.312;2023-03-18T15:53:40;95194.97;;;7.65;40.07
62697;BME280;48761;42.680;23.312;2023-03-18T15:56:16;95174.59;;;7.67;40.04
62697;BME280;48761;42.680;23.312;2023-03-18T15:58:42;95192.53;;;7.78;39.98
62697;BME280;48761;42.680;23.312;2023-03-18T16:01:13;95202.13;;;7.81;39.58
62697;BME280;48761;42.680;23.312;2023-03-18T16:03:41;95205.09;;;7.57;39.16
62697;BME280;48761;42.680;23.312;2023-03-18T16:06:08;95205.25;;;7.54;39.38